Whale Point, California Weather observations

Data are for observation ending at time listed.
 Day   Time    Ave.   Ave.  Ave.  Vector   Max.   Stn.    Total    Solar   Ave.  
  of    of     Air    Rel.  Wind   Wind    Wind   Baro.  Precip.   Rad.    Soil  
Year   Day     Temp.  Hum.  Speed  Dir.    Gust   Pres.                    Temp. 
2016   (PST)    F      %     mph   deg.    mph     mb.     in.     W/m2     F   
------------------------------------------------------------------------------
 242   21:40   58.5    79    1.7   341      3.9   992.9    0.00       0    76.2
 242   21:50   61.1    69    3.8   106      8.7   992.9    0.00       0    76.1
 242   22:00   65.0    59    2.1    56      7.5   992.9    0.00       0    76.0
 242   22:10   62.9    64    1.6    10      3.4   993.2    0.00       0    75.9
 242   22:20   62.4    63    1.0   160      2.0   993.2    0.00       0    75.8
 242   22:30   59.6    74    0.7    24      2.7   993.2    0.00       0    75.7
 242   22:40   58.3    78    1.1    18      3.4   993.2    0.00       0    75.6
 242   22:50   58.5    78    0.5    58      2.8   992.9    0.00       0    75.5
 242   23:00   59.3    75    0.6   122      2.0   993.2    0.00       0    75.4
 242   23:10   59.8    72    2.4    14      5.0   993.2    0.00       0    75.3
 242   23:20   61.6    66    1.9   140      3.7   992.9    0.00       0    75.2
 242   23:30   62.4    65    1.5   169      3.6   992.9    0.00       0    75.1
 242   23:40   63.2    61    0.7   143      2.6   992.9    0.00       0    75.0
 242   23:50   63.3    62    0.5   211      1.8   992.9    0.00       0    74.9
 243    0:00   63.7    59    2.1    94      5.6   992.9    0.00       0    74.8
 243    0:10   70.3    36    4.3    60      7.7   992.6    0.00       0    74.7
 243    0:20   69.3    45    4.1   166     10.7   992.9    0.00       0    74.5
 243    0:30   58.7    77    3.8   170      9.8   993.2    0.00       0    74.4
 243    0:40   58.3    76    2.6    16      5.8   992.6    0.00       0    74.4
 243    0:50   63.6    56    1.7   179      4.9   992.6    0.00       0    74.3
 243    1:00   63.7    58    1.0   172      2.3   992.6    0.00       0    74.2
 243    1:10   62.6    62    2.5   166      4.2   992.6    0.00       0    74.0
 243    1:20   62.7    62    2.4    98      4.2   992.6    0.00       0    74.0
 243    1:30   63.7    58    1.5   158      3.4   992.6    0.00       0    73.9
 243    1:40   65.5    52    2.4   110      4.3   992.2    0.00       0    73.8
 243    1:50   65.0    52    1.9   128      4.5   992.6    0.00       0    73.7
 243    2:00   67.8    44    1.9   163      5.0   992.6    0.00       0    73.6
 243    2:10   61.7    66    3.1   165      6.2   992.6    0.00       0    73.5
 243    2:20   59.6    72    1.0    14      2.3   992.2    0.00       0    73.4
 243    2:30   59.3    72    1.2   150      2.6   992.2    0.00       0    73.3
 243    2:40   59.5    73    1.9   195      3.6   992.2    0.00       0    73.2
 243    2:50   60.5    68    2.2     4      3.4   991.9    0.00       0    73.2
 243    3:00   63.4    56    1.6   135      3.6   992.2    0.00       0    73.1
 243    3:10   65.1    51    2.4   162      5.8   991.9    0.00       0    73.0
 243    3:20   65.9    49    0.4   163      2.5   991.9    0.00       0    72.9
 243    3:30   62.4    62    2.8   183      4.9   992.2    0.00       0    72.8
 243    3:40   58.1    76    1.3    62      3.1   991.9    0.00       0    72.8
 243    3:50   58.9    71    1.6   154      4.7   991.9    0.00       0    72.7
 243    4:00   60.2    66    0.6    79      1.9   991.9    0.00       0    72.6
 243    4:10   60.8    65    1.8   169      6.2   991.9    0.00       0    72.5
 243    4:20   61.2    63    1.5   147      3.3   991.9    0.00       0    72.5
 243    4:30   63.1    55    1.2   131      3.8   991.9    0.00       0    72.4
 243    4:40   67.8    43    2.4    64      5.3   991.9    0.00       0    72.3
 243    4:50   68.7    41    1.2    25      3.4   991.9    0.00       0    72.2
 243    5:00   69.7    39    1.3   112      3.7   991.9    0.00       0    72.1
 243    5:10   68.9    40    1.2    53      2.6   991.9    0.00       0    72.1
 243    5:20   69.4    37    1.7    32      3.6   992.2    0.00       0    72.0
 243    5:30   70.2    38    2.0   167      5.4   992.2    0.00       1    71.9
 243    5:40   64.1    51    1.4    20      3.1   992.2    0.00       3    71.9
 243    5:50   61.6    59    2.2    68      3.7   992.2    0.00       7    71.8
 243    6:00   60.4    63    1.3   120      3.0   992.2    0.00      12    71.7
 243    6:10   61.7    62    1.4   194      3.8   992.2    0.00      17    71.7
 243    6:20   61.1    65    1.4   165      3.3   992.2    0.00      23    71.6
 243    6:30   63.6    56    2.8   170      6.9   992.6    0.00      29    71.5
 243    6:40   64.0    57    2.2   184      4.2   992.6    0.00      32    71.4
 243    6:50   64.9    51    3.0    14      6.4   992.6    0.00      37    71.4
 243    7:00   70.3    36    0.7   145      1.6   992.9    0.00      41    71.3
 243    7:10   72.1    34    1.5   154      2.6   992.9    0.00      46    71.2
 243    7:20   70.6    39    0.2   270      1.0   992.9    0.00      47    71.2
 243    7:30   70.3    39    1.0    43      2.3   992.9    0.00     197    71.2
 243    7:40   71.8    40    1.7   166      3.0   992.9    0.00     368    71.1
 243    7:50   67.0    52    0.8    60      2.1   992.9    0.00     412    71.0
 243    8:00   68.9    49    0.7    96      2.0   992.9    0.00     450    70.9
 243    8:10   71.2    41    1.4   187      3.1   992.9    0.00     484    70.8
 243    8:20   73.8    37    1.8   149      2.7   993.2    0.00     514    70.8
 243    8:30   74.2    37    1.6   182      3.0   993.2    0.00     539    70.8
 243    8:40   72.7    43    1.5   157      3.1   992.9    0.00     572    70.8
 243    8:50   70.2    50    1.0    29      2.6   993.2    0.00     605    70.7
 243    9:00   69.9    54    1.2   182      3.0   993.2    0.00     640    70.7
 243    9:10   63.6    66    3.5   170      7.2   993.2    0.00     671    70.7
 243    9:20   70.5    45    2.9   134      4.7   993.2    0.00     697    70.7
 243    9:30   68.3    56    2.8   210      5.2   993.2    0.00     722    70.6
 243    9:40   65.8    62    1.6   224      4.0   993.2    0.00     746    70.6
 243    9:50   62.4    69    4.8   201      7.2   993.2    0.00     767    70.6
 243   10:00   61.6    71    4.9   204      8.0   993.2    0.00     787    70.7
 243   10:10   61.1    74    2.0   221      4.7   993.2    0.00     807    70.7
 243   10:20   64.5    67    2.3   202      8.3   993.2    0.00     824    70.7
 243   10:30   68.0    58    3.2   196      5.8   993.2    0.00     838    70.7
 243   10:40   69.2    56    1.8   190      5.6   992.9    0.00     854    70.7
 243   10:50   68.5    59    1.3   228      3.5   992.9    0.00     870    70.7
 243   11:00   66.0    64    3.6   208      6.1   992.9    0.00     879    70.7
 243   11:10   64.2    67    3.3   221      6.4   992.9    0.00     887    70.8
 243   11:20   64.3    67    3.3   218      6.0   992.9    0.00     901    70.8
 243   11:30   65.4    64    4.4   194      8.8   992.6    0.00     911    70.9
 243   11:40   65.9    63    3.7   198      7.2   992.6    0.00     915    70.9
 243   11:50   65.3    65    2.9   222      7.5   992.6    0.00     920    71.0
 243   12:00   64.7    66    2.7   207      6.8   992.6    0.00     919    71.0
 243   12:10   66.2    63    3.0   196      5.6   992.2    0.00     916    71.1
 243   12:20   65.6    64    4.6   203      8.5   992.2    0.00     912    71.2
 243   12:30   64.0    68    4.7   218      8.4   992.2    0.00     916    71.2
 243   12:40   63.7    69    3.5   220      8.0   992.2    0.00     913    71.3
 243   12:50   64.2    68    3.5   226      6.0   991.9    0.00     909    71.5
 243   13:00   63.7    68    4.2   222      7.8   991.9    0.00     907    71.6
 243   13:10   64.1    68    4.2   214      8.0   991.9    0.00     870    71.7
 243   13:20   64.0    68    4.3   219      9.0   991.9    0.00     843    71.9
 243   13:30   64.8    67    3.0   229      6.1   991.5    0.00     847    72.1
 243   13:40   66.1    64    4.2   212      7.9   991.5    0.00     846    72.3
 243   13:50   64.8    67    4.2   220      9.1   991.2    0.00     823    72.5
 243   14:00   64.4    68    3.8   224      7.2   991.2    0.00     797    72.7
 243   14:10   64.3    68    4.3   218      7.3   991.2    0.00     778    72.9
 243   14:20   66.0    64    3.3   211      5.9   991.2    0.00     755    73.1
 243   14:30   67.2    62    2.7   222      6.4   990.9    0.00     728    73.3
 243   14:40   66.3    64    3.3   222      6.6   990.9    0.00     705    73.5
 243   14:50   65.9    64    3.8   215      7.0   990.9    0.00     681    73.8
 243   15:00   66.3    63    3.2   218      6.4   990.9    0.00     657    74.0
 243   15:10   66.9    62    2.7   222      5.9   990.9    0.00     632    74.3
 243   15:20   67.5    60    2.6   223      5.7   990.9    0.00     607    74.5
 243   15:30   68.2    59    3.1   209      5.8   990.9    0.00     577    74.7
 243   15:40   68.5    58    3.4   205      7.1   990.9    0.00     545    75.0
 243   15:50   67.9    59    2.1   229      5.0   990.5    0.00     516    75.2
 243   16:00   67.2    60    3.2   219      6.7   990.5    0.00     485    75.4
 243   16:10   64.9    65    3.6   223      6.3   990.5    0.00     451    75.6
 243   16:20   65.8    63    1.9   243      4.1   990.5    0.00     420    75.8
 243   16:30   66.8    61    2.8   222      6.9   990.5    0.00     387    76.0
 243   16:40   65.5    63    3.7   216      7.1   990.5    0.00     351    76.2
 243   16:50   64.9    64    1.9   257      5.6   990.5    0.00     317    76.4
 243   17:00   66.5    61    1.3   287      3.2   990.5    0.00     241    76.6
 243   17:10   68.4    57    2.5   207      6.6   990.5    0.00     217    76.7
 243   17:20   66.1    61    2.8   199      7.9   990.5    0.00     210    76.9
 243   17:30   65.1    63    2.8   207      4.8   990.5    0.00     179    77.0
 243   17:40   66.1    60    0.9   234      4.3   990.5    0.00     148    77.2
 243   17:50   66.3    60    2.6   199      5.8   990.5    0.00     119    77.3
 243   18:00   63.4    66    2.2   222      5.3   990.5    0.00      92    77.4
 243   18:10   62.9    66    2.4   180      6.6   990.5    0.00      57    77.6
 243   18:20   63.2    65    2.4   131      6.6   990.5    0.00      13    77.7
 243   18:30   62.6    66    1.6   206      5.4   990.5    0.00       5    77.8
 243   18:40   60.9    70    2.6   199      6.6   990.5    0.00       4    77.8
 243   18:50   60.0    72    2.1    20      4.7   990.5    0.00       1    77.9
 243   19:00   62.2    67    4.6    45      8.0   990.5    0.00       0    78.0
 243   19:10   62.9    65    0.8   194      3.1   990.5    0.00       0    78.0
 243   19:20   61.1    69    1.6   198      5.0   990.5    0.00       0    78.0
 243   19:30   59.3    74    3.4   176      8.6   990.5    0.00       0    78.0
 243   19:40   61.1    70    3.9    51     10.7   990.5    0.00       0    78.0
 243   19:50   63.0    65    2.8   178      6.6   990.5    0.00       0    77.9
 243   20:00   61.5    69    3.0   152      6.4   990.9    0.00       0    77.9
 243   20:10   62.7    66    1.8    42      6.6   990.9    0.00       0    77.8
 243   20:20   64.0    63    0.8    56      4.7   990.9    0.00       0    77.8
 243   20:30   64.4    62    1.5   203      3.6   990.9    0.00       0    77.7
 243   20:40   60.1    72    0.8   173      2.6   990.9    0.00       0    77.6
 243   20:50   59.8    73    1.4   193      7.7   991.2    0.00       0    77.6
 243   21:00   59.7    73    1.7    26      4.4   991.2    0.00       0    77.5
 243   21:10   61.4    69    1.5   179      3.1   990.9    0.00       0    77.4
 243   21:20   62.4    66    1.5   181      8.2   990.9    0.00       0    77.3
 243   21:30   61.1    69    2.2   356      4.9   990.5    0.00       0    77.2

Return to Whale Point graphs page.


Western Regional Climate Center,wrcc@dri.edu